Lake Los Angeles, California
Current Conditions -  °F | °C
As of 4:53 PM on Wednesday 22 Oct 2014 (Local Time) from KPMD Reporting Station
Clear Clear  
Wind Chill: 79°   Ceiling: Unl
Heat Index: 79°   Visibility: 10mi
Dew Point: 31°   Wind: 0mph
Humidity: 17%   Direction: NA
Pressure: 30"   Gusts: NA
Location:  34.4834°N, 118.08°W
Report Text: KPMD 222353Z 00000KT 10SM CLR 26/M01 A3000 RMK AO2 SLP143 T02611006 10272 20189 56009
Loading
Personal Weather Stations






























Interactive Weather Map
Tropical Storm Tracking
New forecast layout! Learn more

10-Day Weather Forecast

Advertisements
Track Severe Weather on mobile